Time;durP1;ratioP1;P1;durP2;ratioP2;P2;SDS_P1;SDS_P2;PMS_P1;PMS_P2;Temp;Humidity;BMP_temperature;BMP_pressure;BME280_temperature;BME280_humidity;BME280_pressure;Samples;Min_cycle;Max_cycle;Signal;HPM_P1;HPM_P2
2023/10/17 00:01:33;;;;;;;8.60;5.47;;;;;;;10.36;70.60;101962.41;5101498;28;20039;-65
2023/10/17 00:04:11;;;;;;;6.00;5.03;;;;;;;10.38;70.32;101960.28;5099934;28;20110;-64
2023/10/17 00:06:37;;;;;;;7.60;5.00;;;;;;;10.37;70.31;101964.09;5107466;28;20035;-65
2023/10/17 00:09:06;;;;;;;8.07;5.88;;;;;;;10.34;70.47;101956.25;5097662;28;20034;-65
2023/10/17 00:11:40;;;;;;;8.35;5.13;;;;;;;10.36;70.32;101956.84;5104322;28;20088;-65
2023/10/17 00:14:11;;;;;;;7.40;5.38;;;;;;;10.36;70.33;101953.22;5106284;28;20028;-64
2023/10/17 00:16:37;;;;;;;6.28;5.47;;;;;;;10.40;70.27;101946.16;5106743;28;20027;-64
2023/10/17 00:19:04;;;;;;;11.82;5.57;;;;;;;10.39;70.31;101953.63;5098013;28;20027;-65
2023/10/17 00:21:32;;;;;;;7.40;4.85;;;;;;;10.43;70.19;101945.72;5106885;28;20023;-65
2023/10/17 00:23:59;;;;;;;9.63;5.13;;;;;;;10.40;70.09;101940.59;5089440;28;20028;-64
2023/10/17 00:26:25;;;;;;;8.40;5.28;;;;;;;10.38;69.88;101942.78;5109116;28;20049;-65
2023/10/17 00:28:53;;;;;;;9.73;5.35;;;;;;;10.36;70.33;101947.69;5110326;28;20115;-65
2023/10/17 00:31:22;;;;;;;7.10;5.05;;;;;;;10.32;70.06;101938.97;5104523;28;20107;-64
2023/10/17 00:34:00;;;;;;;6.25;5.53;;;;;;;10.30;70.53;101941.97;5096726;28;20131;-66
2023/10/17 00:36:28;;;;;;;7.20;5.05;;;;;;;10.31;70.51;101931.72;5099960;28;20032;-65
2023/10/17 00:38:56;;;;;;;6.95;5.38;;;;;;;10.35;70.22;101926.56;5089813;28;20028;-65
2023/10/17 00:41:32;;;;;;;6.82;5.38;;;;;;;10.36;70.23;101931.03;5090636;28;20024;-65
2023/10/17 00:43:58;;;;;;;9.75;5.80;;;;;;;10.32;70.33;101930.63;5089210;28;20025;-64
2023/10/17 00:46:23;;;;;;;10.70;6.28;;;;;;;10.31;70.30;101921.47;5094944;28;20027;-64
2023/10/17 00:48:50;;;;;;;9.23;6.60;;;;;;;10.32;70.23;101927.84;5090080;28;20036;-65
2023/10/17 00:51:19;;;;;;;7.15;6.05;;;;;;;10.39;70.24;101933.38;5094011;28;20019;-65
2023/10/17 00:53:46;;;;;;;7.70;6.18;;;;;;;10.36;70.26;101929.09;5098290;28;20035;-64
2023/10/17 00:56:11;;;;;;;9.85;6.15;;;;;;;10.41;70.22;101931.19;5095207;28;20023;-65
2023/10/17 00:58:36;;;;;;;9.98;6.45;;;;;;;10.39;70.06;101933.38;5089687;28;20032;-65
2023/10/17 01:01:20;;;;;;;9.93;6.68;;;;;;;10.38;70.16;101921.41;5090239;28;20149;-65
2023/10/17 01:03:47;;;;;;;12.77;5.90;;;;;;;10.38;70.07;101926.97;5092284;28;20036;-65
2023/10/17 01:08:54;;;;;;;7.03;6.05;;;;;;;10.39;70.26;101933.38;5103234;28;20547;-64
2023/10/17 01:11:20;;;;;;;8.32;6.18;;;;;;;10.41;70.16;101931.19;5093604;28;20044;-64
2023/10/17 01:13:53;;;;;;;8.38;5.53;;;;;;;10.32;70.53;101933.41;5092689;28;20118;-65
2023/10/17 01:16:18;;;;;;;;;;;;;;;10.50;70.04;101933.47;5104078;28;20442;-65
2023/10/17 01:18:44;;;;;;;8.45;5.47;;;;;;;10.34;70.57;101935.97;5114125;28;20001;-64
2023/10/17 01:21:12;;;;;;;10.32;5.90;;;;;;;10.28;70.85;101935.78;5110815;28;20055;-65
2023/10/17 01:23:40;;;;;;;10.93;6.60;;;;;;;10.28;71.07;101937.72;5105829;28;20053;-64
2023/10/17 01:26:09;;;;;;;9.85;5.85;;;;;;;10.23;71.12;101931.97;5090807;28;20051;-65
2023/10/17 01:28:35;;;;;;;8.43;5.43;;;;;;;10.24;71.14;101928.94;5099566;28;20055;-64
2023/10/17 01:31:03;;;;;;;9.05;5.70;;;;;;;10.23;71.06;101915.31;5113584;28;20032;-65
2023/10/17 01:33:29;;;;;;;8.57;5.75;;;;;;;10.26;70.99;101912.13;5114037;28;20054;-64
2023/10/17 01:36:01;;;;;;;9.68;5.97;;;;;;;10.23;71.09;101912.53;5099426;28;20460;-65
2023/10/17 01:38:28;;;;;;;9.10;6.35;;;;;;;10.21;71.05;101920.22;5093912;28;20070;-65
2023/10/17 01:40:57;;;;;;;8.10;5.78;;;;;;;10.20;71.24;101926.84;5092780;28;20030;-64
2023/10/17 01:43:23;;;;;;;7.45;5.80;;;;;;;10.18;71.24;101921.53;5095411;28;20023;-64
2023/10/17 01:45:48;;;;;;;9.88;5.93;;;;;;;10.16;71.23;101914.50;5092351;28;20035;-64
2023/10/17 01:48:14;;;;;;;8.35;5.85;;;;;;;10.20;71.15;101921.31;5093347;28;20020;-65
2023/10/17 01:50:39;;;;;;;8.98;5.85;;;;;;;10.17;71.10;101908.72;5094357;28;20031;-64
2023/10/17 01:53:12;;;;;;;7.72;5.85;;;;;;;10.20;71.18;101899.94;5100109;28;20028;-65
2023/10/17 01:55:39;;;;;;;7.10;6.20;;;;;;;10.18;71.13;101887.38;5098644;28;20083;-64
2023/10/17 01:58:07;;;;;;;6.78;5.43;;;;;;;10.18;71.11;101888.25;5101335;28;20161;-64
2023/10/17 02:03:03;;;;;;;10.75;6.25;;;;;;;10.14;71.43;101886.13;5102182;28;20093;-65
2023/10/17 02:05:29;;;;;;;9.00;5.53;;;;;;;10.14;71.14;101875.91;5100116;28;20097;-65
2023/10/17 02:07:55;;;;;;;10.05;6.22;;;;;;;10.12;71.09;101871.63;5095054;28;20020;-65
2023/10/17 02:10:28;;;;;;;11.05;6.25;;;;;;;10.14;71.11;101863.94;5094227;28;20031;-65
2023/10/17 02:12:54;;;;;;;6.78;5.60;;;;;;;10.13;71.18;101865.00;5092746;28;20091;-65
2023/10/17 02:15:19;;;;;;;9.95;5.85;;;;;;;10.16;70.95;101864.56;5099775;28;20032;-64
2023/10/17 02:17:51;;;;;;;8.23;5.97;;;;;;;10.09;71.28;101870.16;5097775;28;20065;-65
2023/10/17 02:23:08;;;;;;;9.43;5.90;;;;;;;10.17;70.91;101846.84;5094509;28;20047;-65
2023/10/17 02:25:35;;;;;;;9.43;6.22;;;;;;;10.16;70.91;101845.16;5105281;28;20047;-64
2023/10/17 02:28:04;;;;;;;9.45;6.18;;;;;;;10.17;70.70;101846.84;5107066;28;20078;-64
2023/10/17 02:30:32;;;;;;;7.72;6.10;;;;;;;10.12;70.83;101852.22;5113006;28;20550;-65
2023/10/17 02:32:57;;;;;;;8.90;5.90;;;;;;;10.10;70.94;101858.00;5111684;28;20027;-64
2023/10/17 02:35:42;;;;;;;9.95;6.63;;;;;;;10.10;70.93;101858.00;5112928;28;20031;-64
2023/10/17 02:38:08;;;;;;;8.32;5.75;;;;;;;10.07;70.71;101870.38;5089150;28;20453;-65
2023/10/17 02:40:34;;;;;;;7.22;5.95;;;;;;;10.06;71.15;101867.81;5092395;28;20024;-65
2023/10/17 02:43:02;;;;;;;10.82;6.10;;;;;;;10.11;70.92;101869.94;5094189;28;20047;-64
2023/10/17 02:45:27;;;;;;;8.27;6.38;;;;;;;10.08;71.04;101863.75;5091999;28;20544;-64
2023/10/17 02:47:57;;;;;;;7.70;6.00;;;;;;;10.06;70.91;101874.25;5092704;28;20024;-64
2023/10/17 02:52:58;;;;;;;7.53;5.82;;;;;;;10.02;71.06;101873.00;5097638;28;20039;-65
2023/10/17 02:55:24;;;;;;;11.80;6.20;;;;;;;10.00;71.35;101868.75;5092007;28;20553;-64
2023/10/17 02:57:54;;;;;;;8.88;6.10;;;;;;;9.97;71.56;101864.47;5094192;28;20124;-65
2023/10/17 03:00:23;;;;;;;11.30;6.50;;;;;;;9.97;71.28;101869.19;5101041;28;20016;-65
2023/10/17 03:02:52;;;;;;;10.32;6.53;;;;;;;9.93;71.38;101865.16;5108552;28;20028;-64
2023/10/17 03:05:18;;;;;;;9.00;6.68;;;;;;;9.93;71.26;101857.69;5102230;28;20122;-65
2023/10/17 03:07:49;;;;;;;10.55;6.93;;;;;;;9.95;71.22;101860.25;5090961;28;20028;-65
2023/10/17 03:10:20;;;;;;;8.73;6.45;;;;;;;9.99;71.06;101848.47;5092652;28;20031;-64
2023/10/17 03:13:01;;;;;;;10.50;6.78;;;;;;;9.99;70.94;101848.47;5100114;28;20032;-64
2023/10/17 03:15:29;;;;;;;8.90;6.60;;;;;;;10.01;71.16;101848.25;5091756;28;20459;-64
2023/10/17 03:17:55;;;;;;;8.90;7.05;;;;;;;10.01;70.79;101857.41;5096458;28;20020;-64
2023/10/17 03:20:36;;;;;;;9.10;7.40;;;;;;;10.01;71.00;101849.09;5091152;28;20386;-65
2023/10/17 03:23:03;;;;;;;12.15;7.95;;;;;;;10.00;71.01;101857.66;5091994;28;20118;-65
2023/10/17 03:25:36;;;;;;;8.75;7.15;;;;;;;10.00;70.66;101850.16;5091568;28;20483;-65
2023/10/17 03:28:04;;;;;;;10.77;7.55;;;;;;;10.02;70.62;101850.81;5094388;28;20027;-64
2023/10/17 03:30:29;;;;;;;9.80;7.32;;;;;;;9.96;70.81;101857.25;5094505;28;20051;-64
2023/10/17 03:33:14;;;;;;;12.38;7.85;;;;;;;9.94;70.95;101864.94;5095197;28;20483;-64
2023/10/17 03:36:04;;;;;;;11.15;8.02;;;;;;;9.95;71.14;101866.66;5090834;28;20070;-64
2023/10/17 03:38:31;;;;;;;9.90;7.60;;;;;;;9.90;71.09;101871.16;5092350;28;20475;-64
2023/10/17 03:41:07;;;;;;;9.60;7.28;;;;;;;9.92;71.14;101864.31;5093952;28;20110;-64
2023/10/17 03:43:39;;;;;;;11.82;7.13;;;;;;;9.92;70.97;101867.09;5091577;28;20490;-64
2023/10/17 03:46:06;;;;;;;11.40;8.50;;;;;;;9.85;71.03;101871.81;5110387;28;20489;-64
2023/10/17 03:48:37;;;;;;;13.27;8.60;;;;;;;9.83;71.48;101874.00;5104431;28;20024;-65
2023/10/17 03:53:32;;;;;;;9.70;8.18;;;;;;;9.84;71.51;101867.34;5110435;28;20146;-64
2023/10/17 03:56:00;;;;;;;14.05;9.25;;;;;;;9.79;71.72;101869.97;5110317;28;20034;-64
2023/10/17 04:01:01;;;;;;;12.50;8.20;;;;;;;9.80;71.54;101879.97;5091431;28;20058;-64
2023/10/17 04:08:38;;;;;;;10.88;8.43;;;;;;;9.80;71.79;101871.66;5092404;28;20043;-65
2023/10/17 04:13:37;;;;;;;;;;;;;;;10.00;71.17;101875.13;5091032;28;20482;-64
2023/10/17 04:16:10;;;;;;;13.93;9.18;;;;;;;9.80;71.67;101872.50;5089885;28;19935;-64
2023/10/17 04:18:38;;;;;;;11.18;8.65;;;;;;;9.77;71.52;101861.84;5094708;28;20016;-65
2023/10/17 04:21:27;;;;;;;10.55;9.27;;;;;;;9.78;71.79;101876.56;5096050;28;20016;-64
2023/10/17 04:23:55;;;;;;;14.82;8.90;;;;;;;9.78;71.76;101862.69;5094197;28;20028;-64
2023/10/17 04:26:27;;;;;;;16.02;9.43;;;;;;;9.80;71.44;101868.88;5091293;28;20576;-64
2023/10/17 04:28:57;;;;;;;13.30;9.52;;;;;;;9.84;71.33;101864.59;5099101;28;20028;-64
2023/10/17 04:31:25;;;;;;;12.70;9.30;;;;;;;9.83;71.36;101872.06;5091428;28;20112;-64
2023/10/17 04:34:06;;;;;;;12.20;9.32;;;;;;;9.82;71.33;101883.34;5106738;28;20033;-64
2023/10/17 04:36:37;;;;;;;16.35;10.30;;;;;;;9.75;71.65;101882.56;5093139;28;20027;-64
2023/10/17 04:42:05;;;;;;;13.90;10.70;;;;;;;9.80;71.46;101874.44;5079444;28;20039;-64
2023/10/17 04:44:50;;;;;;;12.65;10.07;;;;;;;9.82;71.42;101875.03;5092684;28;20105;-64
2023/10/17 04:47:25;;;;;;;15.18;10.88;;;;;;;9.79;71.48;101879.13;5100304;28;20397;-64
2023/10/17 04:49:53;;;;;;;14.65;9.90;;;;;;;9.79;71.42;101878.28;5109671;28;20143;-64
2023/10/17 04:52:28;;;;;;;14.38;10.13;;;;;;;9.74;72.02;101875.31;5104578;28;20038;-64
2023/10/17 04:55:17;;;;;;;13.60;10.32;;;;;;;9.75;71.74;101871.47;5094801;28;20123;-64
2023/10/17 05:01:11;;;;;;;15.27;10.00;;;;;;;9.73;71.85;101863.38;5094659;28;20054;-65
2023/10/17 05:03:50;;;;;;;14.25;10.75;;;;;;;9.72;72.09;101866.38;5098230;28;20066;-65
2023/10/17 05:06:21;;;;;;;14.02;10.65;;;;;;;9.73;71.74;101863.38;5094113;28;20543;-65
2023/10/17 05:09:00;;;;;;;13.20;10.20;;;;;;;9.74;71.71;101862.28;5101140;28;20036;-65
2023/10/17 06:17:22;;;;;;;17.17;13.60;;;;;;;9.62;71.79;101843.81;5092998;28;20050;-64
2023/10/17 06:19:48;;;;;;;17.60;13.82;;;;;;;9.59;71.88;101845.13;5104941;28;20120;-63
2023/10/17 06:32:16;;;;;;;15.75;13.95;;;;;;;9.59;71.99;101853.44;5098146;28;20038;-64
2023/10/17 06:34:45;;;;;;;19.58;14.88;;;;;;;9.55;72.34;101861.34;5100036;28;20038;-65
2023/10/17 06:37:19;;;;;;;17.52;14.57;;;;;;;9.59;72.16;101856.22;5105860;28;20542;-66
2023/10/17 06:39:49;;;;;;;17.15;14.93;;;;;;;9.58;72.25;101865.59;5100316;28;20032;-65
2023/10/17 06:42:14;;;;;;;16.52;14.48;;;;;;;9.59;72.57;101856.22;5094092;28;20603;-64
2023/10/17 06:45:32;;;;;;;17.17;14.68;;;;;;;9.63;72.21;101862.16;5091250;28;20055;-65
2023/10/17 06:47:31;;;;;;;18.00;15.80;;;;;;;9.62;72.08;101860.44;5081882;28;20174;-65
2023/10/17 06:52:40;;;;;;;17.85;15.80;;;;;;;9.65;72.54;101871.94;5099798;28;20038;-64
2023/10/17 06:55:19;;;;;;;17.90;15.25;;;;;;;9.65;72.05;101877.50;5111789;28;20016;-64
2023/10/17 06:57:50;;;;;;;16.88;14.75;;;;;;;9.64;72.13;101869.41;5098658;28;20024;-64
2023/10/17 07:00:17;;;;;;;16.25;14.50;;;;;;;9.69;72.01;101875.97;5111573;28;20024;-64
2023/10/17 07:02:49;;;;;;;17.92;14.50;;;;;;;9.66;72.22;101884.72;5093745;28;20031;-64
2023/10/17 07:05:14;;;;;;;16.85;14.10;;;;;;;9.68;72.23;101876.22;5090643;28;20020;-64
2023/10/17 07:07:41;;;;;;;18.83;14.50;;;;;;;9.68;72.15;101876.22;5091083;28;20034;-65
2023/10/17 07:13:36;;;;;;;19.98;14.85;;;;;;;9.72;72.13;101870.00;5091483;28;20510;-64
2023/10/17 07:16:25;;;;;;;19.45;14.68;;;;;;;9.67;72.31;101863.41;5089263;28;20036;-64
2023/10/17 07:18:51;;;;;;;20.25;14.57;;;;;;;9.64;72.71;101870.25;5098516;28;20042;-66
2023/10/17 07:21:24;;;;;;;17.10;14.32;;;;;;;9.68;72.58;101859.56;5089190;28;20036;-65
2023/10/17 07:23:49;;;;;;;;;;;;;;;9.84;71.88;101856.25;5085823;28;20028;-66
2023/10/17 07:26:24;;;;;;;15.80;13.85;;;;;;;9.72;72.24;101853.34;5088022;28;19926;-66
2023/10/17 07:28:50;;;;;;;19.17;13.70;;;;;;;9.76;72.29;101854.59;5088362;28;20070;-65
2023/10/17 07:31:16;;;;;;;15.35;12.90;;;;;;;9.74;72.33;101859.50;5089132;28;20032;-64
2023/10/17 07:33:47;;;;;;;17.27;12.88;;;;;;;9.75;71.87;101860.38;5088456;28;20023;-65
2023/10/17 07:36:18;;;;;;;19.33;14.07;;;;;;;9.75;71.71;101860.38;5104133;28;20458;-62
2023/10/17 07:38:44;;;;;;;17.20;12.82;;;;;;;9.79;71.84;101867.19;5090999;28;20102;-62
2023/10/17 07:41:13;;;;;;;17.42;13.70;;;;;;;9.76;71.97;101874.03;5094713;28;20116;-62
2023/10/17 07:43:45;;;;;;;16.77;12.75;;;;;;;9.76;71.86;101875.94;5091388;28;20065;-62
2023/10/17 07:46:17;;;;;;;16.75;13.25;;;;;;;9.76;72.00;101873.19;5101301;28;20035;-62
2023/10/17 07:48:48;;;;;;;17.05;12.75;;;;;;;9.78;71.93;101865.47;5090332;28;20036;-62
2023/10/17 07:51:15;;;;;;;15.38;12.90;;;;;;;9.81;71.81;101865.03;5091630;28;20035;-62
2023/10/17 07:53:45;;;;;;;15.73;12.45;;;;;;;9.82;71.78;101866.72;5093003;28;20030;-62
2023/10/17 07:56:20;;;;;;;17.63;12.63;;;;;;;9.81;71.59;101867.81;5095000;28;20024;-61
2023/10/17 07:58:57;;;;;;;15.80;12.15;;;;;;;9.78;71.58;101868.25;5093077;28;20073;-60
2023/10/17 08:01:32;;;;;;;15.57;12.63;;;;;;;9.76;71.65;101862.09;5091470;28;20119;-63
2023/10/17 08:06:42;;;;;;;17.48;12.40;;;;;;;9.75;71.48;101864.00;5091419;28;20042;-63
2023/10/17 08:11:51;;;;;;;15.50;11.70;;;;;;;9.84;72.08;101859.03;5087743;28;20506;-63
2023/10/17 08:14:18;;;;;;;15.75;12.02;;;;;;;9.93;72.06;101857.69;5095833;28;20058;-63
2023/10/17 08:16:43;;;;;;;16.50;12.48;;;;;;;10.09;71.50;101848.81;5105216;27;20519;-63
2023/10/17 08:19:12;;;;;;;14.75;11.95;;;;;;;10.16;71.36;101848.75;5089877;28;20039;-63
2023/10/17 08:27:13;;;;;;;15.18;10.55;;;;;;;10.51;69.91;101849.13;5096597;28;20052;-62
2023/10/17 08:29:38;;;;;;;12.93;10.35;;;;;;;10.57;69.54;101853.78;5089592;28;20020;-62
2023/10/17 08:32:29;;;;;;;13.43;10.45;;;;;;;10.67;69.52;101861.56;5095442;28;20034;-61
2023/10/17 08:34:59;;;;;;;11.40;9.75;;;;;;;10.75;69.33;101843.75;5088230;28;20036;-64
2023/10/17 08:37:40;;;;;;;14.98;10.50;;;;;;;10.80;68.97;101844.75;5102908;28;20126;-67
2023/10/17 08:40:29;;;;;;;12.35;10.00;;;;;;;10.88;68.63;101838.03;5099734;28;20081;-65
2023/10/17 08:42:51;;;;;;;13.82;10.20;;;;;;;10.91;68.09;101843.13;5107085;28;20043;-66
2023/10/17 08:45:18;;;;;;;15.82;10.65;;;;;;;10.99;67.99;101841.97;5095534;28;20032;-66
2023/10/17 08:47:44;;;;;;;15.15;10.13;;;;;;;11.08;67.79;101837.81;5089375;28;20109;-67
2023/10/17 08:50:09;;;;;;;11.93;9.35;;;;;;;11.19;67.87;101836.19;5089122;28;20028;-66
2023/10/17 08:52:37;;;;;;;9.93;8.88;;;;;;;11.28;65.84;101848.69;5102472;28;20032;-65
2023/10/17 08:55:03;;;;;;;13.73;9.00;;;;;;;11.37;66.01;101847.28;5097455;28;20046;-64
2023/10/17 08:57:30;;;;;;;10.60;8.93;;;;;;;11.45;66.28;101849.72;5093041;28;20392;-65
2023/10/17 09:03:02;;;;;;;9.15;8.25;;;;;;;11.63;64.94;101856.31;5044805;28;20115;-66
2023/10/17 09:05:27;;;;;;;10.77;7.57;;;;;;;11.69;64.71;101849.84;5089575;28;20056;-66
2023/10/17 09:07:56;;;;;;;10.35;7.63;;;;;;;11.74;64.58;101853.59;5093615;28;20105;-68
2023/10/17 09:10:36;;;;;;;8.15;7.25;;;;;;;11.78;63.51;101843.69;5105856;28;20118;-66
2023/10/17 09:13:42;;;;;;;10.55;7.07;;;;;;;11.84;63.41;101843.88;5092754;28;20054;-65
2023/10/17 09:16:10;;;;;;;9.20;6.32;;;;;;;11.90;63.64;101846.53;5093217;28;20050;-65
2023/10/17 09:18:47;;;;;;;7.70;6.72;;;;;;;11.88;62.10;101843.16;5103497;28;20101;-66
2023/10/17 09:21:14;;;;;;;8.52;7.15;;;;;;;11.90;62.75;101838.19;5099635;28;20031;-66
2023/10/17 09:23:41;;;;;;;8.82;7.00;;;;;;;11.95;61.89;101841.13;5090317;28;20552;-67
2023/10/17 09:26:09;;;;;;;10.85;6.78;;;;;;;12.00;62.00;101844.03;5095962;28;20040;-67
2023/10/17 09:28:39;;;;;;;9.38;6.50;;;;;;;12.11;61.64;101833.19;5104330;28;20542;-67
2023/10/17 09:31:09;;;;;;;8.73;6.80;;;;;;;12.18;60.78;101836.66;5110412;28;20042;-66
2023/10/17 09:33:43;;;;;;;9.95;6.28;;;;;;;12.32;61.00;101832.59;5112544;28;20020;-66
2023/10/17 09:36:09;;;;;;;11.13;6.63;;;;;;;12.44;61.00;101836.22;5107820;28;20035;-65
2023/10/17 09:38:41;;;;;;;9.77;5.80;;;;;;;12.60;60.29;101839.38;5095579;28;20069;-67
2023/10/17 09:41:08;;;;;;;10.73;6.50;;;;;;;12.73;60.10;101842.78;5095675;28;20028;-66
2023/10/17 09:43:36;;;;;;;9.02;5.82;;;;;;;12.73;58.28;101844.69;5094603;28;20620;-66
2023/10/17 09:46:02;;;;;;;7.93;5.95;;;;;;;12.73;58.43;101841.88;5104558;28;20035;-65
2023/10/17 09:48:35;;;;;;;8.45;5.45;;;;;;;12.86;58.64;101838.88;5105128;28;20474;-66
2023/10/17 09:51:04;;;;;;;6.95;5.60;;;;;;;12.95;58.22;101840.19;5091243;28;20100;-66
2023/10/17 09:53:35;;;;;;;8.00;5.78;;;;;;;13.03;57.93;101838.94;5092254;28;20514;-65
2023/10/17 09:56:08;;;;;;;8.88;5.65;;;;;;;13.08;57.21;101841.84;5109731;28;20445;-67
2023/10/17 09:58:38;;;;;;;7.60;5.25;;;;;;;13.12;56.41;101847.78;5103885;28;20525;-65
2023/10/17 10:01:05;;;;;;;7.22;5.05;;;;;;;13.17;56.57;101840.38;5095897;28;20062;-64
2023/10/17 10:03:33;;;;;;;7.65;5.00;;;;;;;13.29;56.69;101847.91;5099772;28;20035;-65
2023/10/17 10:06:21;;;;;;;6.63;4.70;;;;;;;13.35;57.36;101844.94;5093971;28;20028;-66
2023/10/17 10:08:47;;;;;;;7.35;5.10;;;;;;;13.38;55.88;101847.25;5097560;28;20101;-67
2023/10/17 10:11:14;;;;;;;7.43;4.63;;;;;;;13.36;53.91;101848.59;5099382;28;20080;-67
2023/10/17 10:14:08;;;;;;;8.27;4.50;;;;;;;13.35;55.98;101847.75;5104289;28;20509;-66
2023/10/17 10:16:57;;;;;;;6.57;5.13;;;;;;;13.37;56.55;101840.00;5096245;28;20028;-67
2023/10/17 10:19:24;;;;;;;9.60;4.90;;;;;;;13.42;55.31;101840.09;5095520;28;20024;-66
2023/10/17 10:21:59;;;;;;;7.72;5.18;;;;;;;13.48;56.02;101836.31;5101940;28;20777;-66
2023/10/17 10:24:32;;;;;;;5.63;4.68;;;;;;;13.55;55.78;101836.16;5103643;28;20495;-66
2023/10/17 10:27:35;;;;;;;5.22;4.45;;;;;;;13.68;56.57;101830.28;5091289;28;20036;-67
2023/10/17 10:30:19;;;;;;;;;;;;;;;13.78;57.92;101817.59;5089320;28;20051;-66
2023/10/17 10:32:46;;;;;;;6.35;4.03;;;;;;;13.79;53.01;101824.88;5094900;28;19919;-65
2023/10/17 10:35:11;;;;;;;9.73;4.50;;;;;;;13.77;52.69;101821.50;5092302;28;20081;-65
2023/10/17 10:37:54;;;;;;;6.63;4.35;;;;;;;13.80;54.09;101821.00;5102434;28;20031;-66
2023/10/17 10:40:25;;;;;;;6.55;4.13;;;;;;;13.78;53.07;101817.59;5090034;28;20028;-66
2023/10/17 10:42:53;;;;;;;6.60;4.50;;;;;;;13.79;52.94;101808.13;5089534;28;20032;-66
2023/10/17 10:48:17;;;;;;;7.50;4.15;;;;;;;13.81;52.33;101811.53;5091540;28;20043;-65
2023/10/17 10:50:45;;;;;;;6.47;3.92;;;;;;;13.86;52.49;101806.88;5099351;28;20545;-64
2023/10/17 10:53:29;;;;;;;7.05;4.07;;;;;;;13.86;52.05;101803.25;5097491;28;20059;-65
2023/10/17 10:55:55;;;;;;;5.88;3.85;;;;;;;13.85;52.07;101802.41;5090992;28;20034;-65
2023/10/17 10:58:25;;;;;;;5.63;4.07;;;;;;;13.80;50.94;101793.09;5090623;28;20425;-65
2023/10/17 11:00:51;;;;;;;6.60;4.13;;;;;;;13.76;50.52;101784.38;5102823;28;20036;-64
2023/10/17 11:03:19;;;;;;;6.05;3.90;;;;;;;13.84;51.30;101789.56;5094193;28;20089;-64
2023/10/17 11:05:55;;;;;;;4.38;3.17;;;;;;;13.85;52.44;101785.66;5094088;28;20042;-64
2023/10/17 11:08:24;;;;;;;3.83;3.40;;;;;;;13.89;50.61;101775.69;5095899;28;20037;-60
2023/10/17 11:10:50;;;;;;;7.35;4.38;;;;;;;13.92;51.15;101768.75;5091087;28;20132;-61
2023/10/17 11:13:15;;;;;;;8.70;4.30;;;;;;;13.96;51.65;101762.41;5091129;28;20570;-60
2023/10/17 11:15:43;;;;;;;5.38;3.35;;;;;;;14.01;51.32;101767.22;5094392;28;20035;-66
2023/10/17 11:18:10;;;;;;;7.15;4.00;;;;;;;14.04;50.40;101771.47;5094336;28;20155;-66
2023/10/17 11:20:35;;;;;;;5.00;3.20;;;;;;;14.08;50.98;101762.31;5095853;28;20028;-61
2023/10/17 11:23:08;;;;;;;6.70;3.22;;;;;;;14.11;50.46;101755.38;5089434;28;20027;-66
2023/10/17 11:25:34;;;;;;;5.00;2.70;;;;;;;14.19;50.33;101758.59;5091659;28;20091;-66
2023/10/17 11:28:06;;;;;;;5.07;2.60;;;;;;;14.23;49.91;101753.34;5100827;28;20109;-66
2023/10/17 11:30:39;;;;;;;5.55;2.72;;;;;;;14.26;48.77;101752.81;5100924;28;20024;-66
2023/10/17 11:33:14;;;;;;;3.17;2.28;;;;;;;14.24;48.74;101744.69;5091745;28;20028;-66
2023/10/17 11:35:51;;;;;;;5.00;2.33;;;;;;;14.23;49.32;101744.97;5089859;28;20139;-67
2023/10/17 11:38:37;;;;;;;3.17;2.47;;;;;;;14.17;49.45;101743.19;5089316;28;20031;-66
2023/10/17 11:41:05;;;;;;;4.53;2.67;;;;;;;14.13;49.29;101734.47;5086007;28;20572;-66
2023/10/17 11:43:50;;;;;;;3.38;2.45;;;;;;;14.16;50.17;101731.19;5089866;28;20036;-66
2023/10/17 11:46:29;;;;;;;6.88;2.95;;;;;;;14.20;50.21;101731.50;5087211;28;20043;-66
2023/10/17 11:49:14;;;;;;;4.95;2.90;;;;;;;14.20;50.95;101725.94;5100452;28;20502;-67
2023/10/17 11:51:48;;;;;;;4.53;3.00;;;;;;;14.07;49.15;101729.06;5098206;28;20028;-66
2023/10/17 11:54:13;;;;;;;4.25;2.85;;;;;;;13.96;49.85;101728.91;5092074;28;20020;-66
2023/10/17 11:56:41;;;;;;;4.25;2.95;;;;;;;13.92;49.92;101726.88;5089150;28;20028;-66
2023/10/17 11:59:10;;;;;;;4.03;2.42;;;;;;;13.92;50.20;101732.47;5086384;28;20421;-66
2023/10/17 12:01:36;;;;;;;4.68;2.95;;;;;;;13.91;50.42;101742.78;5088205;28;20044;-67
2023/10/17 12:04:06;;;;;;;5.82;3.20;;;;;;;13.96;50.55;101737.28;5096157;28;20040;-67
2023/10/17 12:06:35;;;;;;;5.47;2.90;;;;;;;13.90;51.03;101749.44;5094664;28;20055;-66
2023/10/17 12:11:47;;;;;;;3.38;3.08;;;;;;;13.86;51.62;101731.53;5087614;28;20039;-66
2023/10/17 12:14:20;;;;;;;4.97;3.70;;;;;;;13.75;50.99;101724.94;5096678;28;20035;-66
2023/10/17 12:17:08;;;;;;;6.30;3.97;;;;;;;13.77;53.01;101713.53;5107650;28;20118;-65
2023/10/17 12:19:33;;;;;;;6.07;4.45;;;;;;;13.68;52.35;101701.94;5099860;28;20028;-66
2023/10/17 12:22:00;;;;;;;5.32;4.00;;;;;;;13.65;52.75;101690.44;5093411;28;20036;-68
2023/10/17 12:24:34;;;;;;;5.43;4.32;;;;;;;13.61;52.95;101694.84;5088599;28;20429;-66
2023/10/17 12:27:00;;;;;;;10.00;4.80;;;;;;;13.60;52.98;101694.00;5093044;28;20135;-66
2023/10/17 12:29:26;;;;;;;7.53;4.18;;;;;;;13.61;53.00;101683.69;5085590;28;20039;-66
2023/10/17 12:31:54;;;;;;;5.75;3.80;;;;;;;13.58;52.56;101685.03;5086547;28;20098;-67
2023/10/17 12:34:20;;;;;;;5.43;4.03;;;;;;;13.53;51.93;101681.31;5086704;28;20135;-65
2023/10/17 12:36:46;;;;;;;6.55;4.05;;;;;;;13.44;52.80;101678.94;5090415;28;20195;-65
2023/10/17 12:39:12;;;;;;;6.63;4.25;;;;;;;13.48;53.17;101668.97;5089162;28;20031;-65
2023/10/17 12:41:37;;;;;;;5.20;4.05;;;;;;;13.48;53.10;101657.81;5093196;28;20039;-65
2023/10/17 12:44:03;;;;;;;8.35;4.10;;;;;;;13.50;52.96;101643.59;5092197;28;20032;-65
2023/10/17 12:46:29;;;;;;;4.65;3.85;;;;;;;13.51;53.06;101640.56;5089873;28;20034;-65
2023/10/17 12:48:54;;;;;;;5.70;4.13;;;;;;;13.46;51.84;101637.69;5095327;28;20152;-66
2023/10/17 12:51:23;;;;;;;5.63;3.95;;;;;;;13.45;53.07;101636.00;5087160;28;20577;-64
2023/10/17 12:53:49;;;;;;;5.72;4.10;;;;;;;13.40;52.58;101627.56;5101184;28;20430;-65
2023/10/17 12:56:14;;;;;;;8.02;3.88;;;;;;;13.42;52.66;101630.09;5092461;28;20043;-65
2023/10/17 12:58:40;;;;;;;6.43;3.72;;;;;;;13.44;53.12;101625.97;5095893;28;20056;-65
2023/10/17 13:01:06;;;;;;;5.90;4.35;;;;;;;13.44;52.98;101623.16;5088890;28;20132;-65
2023/10/17 13:03:38;;;;;;;5.43;4.10;;;;;;;13.46;52.79;101628.47;5098365;28;20028;-65
2023/10/17 13:06:06;;;;;;;6.82;3.60;;;;;;;13.46;52.94;101622.91;5100396;28;20030;-66
2023/10/17 13:08:32;;;;;;;6.20;4.03;;;;;;;13.46;52.75;101625.69;5096440;28;20039;-65
2023/10/17 13:10:58;;;;;;;3.88;3.45;;;;;;;13.44;53.97;101616.72;5095904;28;20024;-65
2023/10/17 13:13:24;;;;;;;4.25;3.53;;;;;;;13.43;52.91;101623.41;5098350;28;20046;-65
2023/10/17 13:15:50;;;;;;;5.97;3.28;;;;;;;13.40;52.64;101616.41;5101520;28;20027;-65
2023/10/17 13:18:16;;;;;;;5.30;3.50;;;;;;;13.42;53.59;101613.34;5095038;28;20081;-66
2023/10/17 13:20:54;;;;;;;4.43;3.50;;;;;;;13.43;53.83;101618.66;5095275;28;20020;-65
2023/10/17 13:23:20;;;;;;;6.18;4.20;;;;;;;13.44;53.35;101614.81;5094452;28;20474;-66
2023/10/17 13:25:46;;;;;;;5.63;3.92;;;;;;;13.45;53.67;101615.66;5099453;28;20491;-66
2023/10/17 13:28:12;;;;;;;4.50;3.58;;;;;;;13.45;53.50;101619.28;5097702;28;20031;-66
2023/10/17 13:30:37;;;;;;;6.05;4.30;;;;;;;13.42;52.66;101625.34;5101768;28;20035;-65
2023/10/17 13:33:06;;;;;;;5.38;4.03;;;;;;;13.38;53.03;101613.00;5092071;28;20032;-61
2023/10/17 13:35:37;;;;;;;6.13;4.60;;;;;;;13.38;53.43;101620.53;5099144;28;20023;-65
2023/10/17 13:38:03;;;;;;;5.20;4.57;;;;;;;13.36;53.51;101608.78;5092618;28;20440;-64
2023/10/17 13:40:32;;;;;;;7.03;4.50;;;;;;;13.37;53.66;101605.75;5093633;28;20483;-65
2023/10/17 13:42:58;;;;;;;4.70;4.25;;;;;;;13.40;53.89;101602.47;5101870;28;20071;-64
2023/10/17 13:45:23;;;;;;;4.60;4.00;;;;;;;13.40;54.39;101598.81;5092419;28;20562;-65
2023/10/17 13:47:57;;;;;;;5.40;4.07;;;;;;;13.45;55.02;101599.75;5112207;28;20028;-66
2023/10/17 13:50:23;;;;;;;4.78;4.05;;;;;;;13.48;55.00;101612.34;5101356;28;20394;-66